sensor_id;sensor_type;location;lat;lon;timestamp;P1;durP1;ratioP1;P2;durP2;ratioP2
24826;SDS011;12910;57.690;11.974;2023-02-01T00:01:42;9.03;;;3.77;;
24826;SDS011;12910;57.690;11.974;2023-02-01T00:04:07;9.10;;;1.90;;
24826;SDS011;12910;57.690;11.974;2023-02-01T00:06:33;10.10;;;1.37;;
24826;SDS011;12910;57.690;11.974;2023-02-01T00:08:58;6.53;;;1.30;;
24826;SDS011;12910;57.690;11.974;2023-02-01T00:11:24;6.43;;;1.40;;
24826;SDS011;12910;57.690;11.974;2023-02-01T00:13:50;5.80;;;1.50;;
24826;SDS011;12910;57.690;11.974;2023-02-01T00:16:17;8.27;;;1.70;;
24826;SDS011;12910;57.690;11.974;2023-02-01T00:18:44;8.73;;;1.57;;
24826;SDS011;12910;57.690;11.974;2023-02-01T00:21:12;6.27;;;2.07;;
24826;SDS011;12910;57.690;11.974;2023-02-01T00:23:39;2.80;;;1.23;;
24826;SDS011;12910;57.690;11.974;2023-02-01T00:26:04;10.07;;;1.77;;
24826;SDS011;12910;57.690;11.974;2023-02-01T00:28:31;3.60;;;1.73;;
24826;SDS011;12910;57.690;11.974;2023-02-01T00:31:01;8.33;;;1.23;;
24826;SDS011;12910;57.690;11.974;2023-02-01T00:33:27;12.33;;;1.87;;
24826;SDS011;12910;57.690;11.974;2023-02-01T00:35:56;8.93;;;1.10;;
24826;SDS011;12910;57.690;11.974;2023-02-01T00:38:23;6.90;;;2.20;;
24826;SDS011;12910;57.690;11.974;2023-02-01T00:40:49;12.37;;;2.87;;
24826;SDS011;12910;57.690;11.974;2023-02-01T00:43:14;10.13;;;1.53;;
24826;SDS011;12910;57.690;11.974;2023-02-01T00:45:39;4.47;;;1.60;;
24826;SDS011;12910;57.690;11.974;2023-02-01T00:48:05;7.57;;;1.67;;
24826;SDS011;12910;57.690;11.974;2023-02-01T00:50:30;10.50;;;2.47;;
24826;SDS011;12910;57.690;11.974;2023-02-01T00:52:56;16.00;;;2.40;;
24826;SDS011;12910;57.690;11.974;2023-02-01T00:55:21;6.87;;;1.73;;
24826;SDS011;12910;57.690;11.974;2023-02-01T00:57:46;7.60;;;1.10;;
24826;SDS011;12910;57.690;11.974;2023-02-01T01:00:12;23.87;;;2.40;;
24826;SDS011;12910;57.690;11.974;2023-02-01T01:02:37;10.53;;;2.17;;
24826;SDS011;12910;57.690;11.974;2023-02-01T01:05:03;6.17;;;1.80;;
24826;SDS011;12910;57.690;11.974;2023-02-01T01:07:28;4.73;;;1.40;;
24826;SDS011;12910;57.690;11.974;2023-02-01T01:09:54;6.60;;;2.13;;
24826;SDS011;12910;57.690;11.974;2023-02-01T01:12:19;10.60;;;1.43;;
24826;SDS011;12910;57.690;11.974;2023-02-01T01:14:45;12.50;;;1.47;;
24826;SDS011;12910;57.690;11.974;2023-02-01T01:17:10;2.87;;;1.00;;
24826;SDS011;12910;57.690;11.974;2023-02-01T01:19:36;5.03;;;2.00;;
24826;SDS011;12910;57.690;11.974;2023-02-01T01:22:01;14.43;;;2.67;;
24826;SDS011;12910;57.690;11.974;2023-02-01T01:24:27;18.83;;;3.23;;
24826;SDS011;12910;57.690;11.974;2023-02-01T01:26:52;13.90;;;1.73;;
24826;SDS011;12910;57.690;11.974;2023-02-01T01:29:18;12.13;;;2.10;;
24826;SDS011;12910;57.690;11.974;2023-02-01T01:31:43;24.10;;;2.60;;
24826;SDS011;12910;57.690;11.974;2023-02-01T01:34:08;10.50;;;2.30;;
24826;SDS011;12910;57.690;11.974;2023-02-01T01:36:34;7.17;;;1.57;;
24826;SDS011;12910;57.690;11.974;2023-02-01T01:38:59;15.60;;;2.27;;
24826;SDS011;12910;57.690;11.974;2023-02-01T01:41:25;13.97;;;2.07;;
24826;SDS011;12910;57.690;11.974;2023-02-01T01:43:55;11.30;;;2.23;;
24826;SDS011;12910;57.690;11.974;2023-02-01T01:46:23;9.53;;;1.73;;
24826;SDS011;12910;57.690;11.974;2023-02-01T01:48:53;16.70;;;2.13;;
24826;SDS011;12910;57.690;11.974;2023-02-01T01:51:27;18.80;;;2.73;;
24826;SDS011;12910;57.690;11.974;2023-02-01T01:54:06;10.03;;;1.70;;
24826;SDS011;12910;57.690;11.974;2023-02-01T01:56:33;8.47;;;1.87;;
24826;SDS011;12910;57.690;11.974;2023-02-01T01:59:00;9.13;;;1.50;;
24826;SDS011;12910;57.690;11.974;2023-02-01T02:01:27;5.67;;;1.97;;
24826;SDS011;12910;57.690;11.974;2023-02-01T02:03:53;3.90;;;2.33;;
24826;SDS011;12910;57.690;11.974;2023-02-01T02:07:03;17.53;;;2.07;;
24826;SDS011;12910;57.690;11.974;2023-02-01T02:09:12;11.90;;;1.63;;
24826;SDS011;12910;57.690;11.974;2023-02-01T02:11:39;8.47;;;2.17;;
24826;SDS011;12910;57.690;11.974;2023-02-01T02:14:05;21.93;;;2.23;;
24826;SDS011;12910;57.690;11.974;2023-02-01T02:25:26;30.00;;;2.37;;
24826;SDS011;12910;57.690;11.974;2023-02-01T02:30:58;12.03;;;3.50;;
24826;SDS011;12910;57.690;11.974;2023-02-01T02:36:16;15.20;;;2.60;;
24826;SDS011;12910;57.690;11.974;2023-02-01T02:41:19;15.30;;;2.77;;
24826;SDS011;12910;57.690;11.974;2023-02-01T02:44:23;10.37;;;1.83;;
24826;SDS011;12910;57.690;11.974;2023-02-01T02:47:33;25.07;;;3.20;;
24826;SDS011;12910;57.690;11.974;2023-02-01T02:53:10;21.87;;;3.53;;
24826;SDS011;12910;57.690;11.974;2023-02-01T02:55:58;13.90;;;2.23;;
24826;SDS011;12910;57.690;11.974;2023-02-01T02:58:43;13.70;;;3.00;;
24826;SDS011;12910;57.690;11.974;2023-02-01T03:01:29;14.70;;;3.73;;
24826;SDS011;12910;57.690;11.974;2023-02-01T03:04:15;23.43;;;3.10;;
24826;SDS011;12910;57.690;11.974;2023-02-01T03:06:42;12.57;;;3.37;;
24826;SDS011;12910;57.690;11.974;2023-02-01T03:09:12;16.60;;;2.27;;
24826;SDS011;12910;57.690;11.974;2023-02-01T03:11:41;16.53;;;3.27;;
24826;SDS011;12910;57.690;11.974;2023-02-01T03:14:31;21.20;;;2.93;;
24826;SDS011;12910;57.690;11.974;2023-02-01T03:17:01;21.40;;;2.97;;
24826;SDS011;12910;57.690;11.974;2023-02-01T03:19:40;27.10;;;3.77;;
24826;SDS011;12910;57.690;11.974;2023-02-01T03:22:14;17.30;;;3.67;;
24826;SDS011;12910;57.690;11.974;2023-02-01T03:24:47;20.67;;;2.20;;
24826;SDS011;12910;57.690;11.974;2023-02-01T03:30:19;24.20;;;3.67;;
24826;SDS011;12910;57.690;11.974;2023-02-01T03:32:48;40.73;;;4.67;;
24826;SDS011;12910;57.690;11.974;2023-02-01T03:35:48;28.90;;;4.37;;
24826;SDS011;12910;57.690;11.974;2023-02-01T03:46:30;27.17;;;5.40;;
24826;SDS011;12910;57.690;11.974;2023-02-01T03:49:19;30.87;;;4.93;;
24826;SDS011;12910;57.690;11.974;2023-02-01T03:51:50;13.87;;;2.60;;
24826;SDS011;12910;57.690;11.974;2023-02-01T03:54:16;19.77;;;3.83;;
24826;SDS011;12910;57.690;11.974;2023-02-01T03:56:44;24.50;;;3.87;;
24826;SDS011;12910;57.690;11.974;2023-02-01T03:59:12;29.83;;;3.23;;
24826;SDS011;12910;57.690;11.974;2023-02-01T04:01:38;13.23;;;3.17;;
24826;SDS011;12910;57.690;11.974;2023-02-01T04:04:03;31.33;;;3.20;;
24826;SDS011;12910;57.690;11.974;2023-02-01T04:06:29;24.07;;;3.87;;
24826;SDS011;12910;57.690;11.974;2023-02-01T04:08:55;26.07;;;3.83;;
24826;SDS011;12910;57.690;11.974;2023-02-01T04:11:20;32.27;;;3.57;;
24826;SDS011;12910;57.690;11.974;2023-02-01T04:13:45;28.03;;;3.10;;
24826;SDS011;12910;57.690;11.974;2023-02-01T04:16:11;16.33;;;2.47;;
24826;SDS011;12910;57.690;11.974;2023-02-01T04:18:36;13.17;;;3.70;;
24826;SDS011;12910;57.690;11.974;2023-02-01T04:21:01;34.93;;;4.10;;
24826;SDS011;12910;57.690;11.974;2023-02-01T04:23:28;22.73;;;4.50;;
24826;SDS011;12910;57.690;11.974;2023-02-01T04:25:53;18.73;;;4.00;;
24826;SDS011;12910;57.690;11.974;2023-02-01T04:28:20;18.73;;;4.83;;
24826;SDS011;12910;57.690;11.974;2023-02-01T04:30:46;17.60;;;4.40;;
24826;SDS011;12910;57.690;11.974;2023-02-01T04:33:11;29.57;;;4.23;;
24826;SDS011;12910;57.690;11.974;2023-02-01T04:35:39;14.33;;;2.60;;
24826;SDS011;12910;57.690;11.974;2023-02-01T04:38:04;18.37;;;3.13;;
24826;SDS011;12910;57.690;11.974;2023-02-01T04:40:30;21.87;;;3.60;;
24826;SDS011;12910;57.690;11.974;2023-02-01T04:42:55;28.63;;;3.57;;
24826;SDS011;12910;57.690;11.974;2023-02-01T04:45:20;24.57;;;3.67;;
24826;SDS011;12910;57.690;11.974;2023-02-01T04:47:46;12.60;;;3.17;;
24826;SDS011;12910;57.690;11.974;2023-02-01T04:50:13;19.00;;;3.37;;
24826;SDS011;12910;57.690;11.974;2023-02-01T04:52:39;22.77;;;4.83;;
24826;SDS011;12910;57.690;11.974;2023-02-01T04:55:04;13.83;;;5.63;;
24826;SDS011;12910;57.690;11.974;2023-02-01T04:57:30;31.20;;;4.70;;
24826;SDS011;12910;57.690;11.974;2023-02-01T04:59:55;25.10;;;4.33;;
24826;SDS011;12910;57.690;11.974;2023-02-01T05:02:21;23.53;;;3.63;;
24826;SDS011;12910;57.690;11.974;2023-02-01T05:04:46;37.47;;;5.30;;
24826;SDS011;12910;57.690;11.974;2023-02-01T05:07:11;26.83;;;4.07;;
24826;SDS011;12910;57.690;11.974;2023-02-01T05:09:37;30.07;;;4.27;;
24826;SDS011;12910;57.690;11.974;2023-02-01T05:12:02;37.03;;;5.17;;
24826;SDS011;12910;57.690;11.974;2023-02-01T05:14:46;21.13;;;3.73;;
24826;SDS011;12910;57.690;11.974;2023-02-01T05:17:12;24.23;;;3.93;;
24826;SDS011;12910;57.690;11.974;2023-02-01T05:19:38;23.23;;;5.03;;
24826;SDS011;12910;57.690;11.974;2023-02-01T05:22:03;15.47;;;3.60;;
24826;SDS011;12910;57.690;11.974;2023-02-01T05:24:28;23.33;;;2.97;;
24826;SDS011;12910;57.690;11.974;2023-02-01T05:26:54;24.17;;;3.70;;
24826;SDS011;12910;57.690;11.974;2023-02-01T05:29:19;19.47;;;3.03;;
24826;SDS011;12910;57.690;11.974;2023-02-01T05:31:45;23.37;;;2.57;;
24826;SDS011;12910;57.690;11.974;2023-02-01T05:34:11;17.23;;;2.73;;
24826;SDS011;12910;57.690;11.974;2023-02-01T05:36:37;24.60;;;2.97;;
24826;SDS011;12910;57.690;11.974;2023-02-01T05:39:03;26.50;;;3.10;;
24826;SDS011;12910;57.690;11.974;2023-02-01T05:41:28;21.23;;;3.50;;
24826;SDS011;12910;57.690;11.974;2023-02-01T05:43:54;22.67;;;3.43;;
24826;SDS011;12910;57.690;11.974;2023-02-01T05:46:19;15.70;;;2.80;;
24826;SDS011;12910;57.690;11.974;2023-02-01T05:48:45;23.33;;;3.07;;
24826;SDS011;12910;57.690;11.974;2023-02-01T05:51:10;18.07;;;3.00;;
24826;SDS011;12910;57.690;11.974;2023-02-01T05:53:36;12.40;;;2.77;;
24826;SDS011;12910;57.690;11.974;2023-02-01T05:56:01;29.77;;;4.83;;
24826;SDS011;12910;57.690;11.974;2023-02-01T05:58:27;14.60;;;3.13;;
24826;SDS011;12910;57.690;11.974;2023-02-01T06:00:54;9.47;;;2.53;;
24826;SDS011;12910;57.690;11.974;2023-02-01T06:03:19;22.67;;;3.13;;
24826;SDS011;12910;57.690;11.974;2023-02-01T06:05:45;23.50;;;5.10;;
24826;SDS011;12910;57.690;11.974;2023-02-01T06:08:11;10.63;;;2.87;;
24826;SDS011;12910;57.690;11.974;2023-02-01T06:10:37;28.93;;;3.87;;
24826;SDS011;12910;57.690;11.974;2023-02-01T06:13:03;24.30;;;3.17;;
24826;SDS011;12910;57.690;11.974;2023-02-01T06:15:29;13.83;;;2.87;;
24826;SDS011;12910;57.690;11.974;2023-02-01T06:17:55;16.43;;;3.23;;
24826;SDS011;12910;57.690;11.974;2023-02-01T06:20:20;25.67;;;3.87;;
24826;SDS011;12910;57.690;11.974;2023-02-01T06:22:46;26.57;;;3.40;;
24826;SDS011;12910;57.690;11.974;2023-02-01T06:25:11;32.70;;;3.80;;
24826;SDS011;12910;57.690;11.974;2023-02-01T06:27:37;38.80;;;3.73;;
24826;SDS011;12910;57.690;11.974;2023-02-01T06:30:05;29.20;;;3.23;;
24826;SDS011;12910;57.690;11.974;2023-02-01T06:32:31;25.97;;;3.60;;
24826;SDS011;12910;57.690;11.974;2023-02-01T06:34:57;19.67;;;3.13;;
24826;SDS011;12910;57.690;11.974;2023-02-01T06:37:23;26.17;;;3.80;;
24826;SDS011;12910;57.690;11.974;2023-02-01T06:39:50;32.23;;;6.43;;
24826;SDS011;12910;57.690;11.974;2023-02-01T06:42:15;36.80;;;3.90;;
24826;SDS011;12910;57.690;11.974;2023-02-01T06:44:40;19.67;;;3.90;;
24826;SDS011;12910;57.690;11.974;2023-02-01T06:47:06;28.07;;;2.23;;
24826;SDS011;12910;57.690;11.974;2023-02-01T06:49:31;25.53;;;4.57;;
24826;SDS011;12910;57.690;11.974;2023-02-01T06:51:57;20.70;;;3.33;;
24826;SDS011;12910;57.690;11.974;2023-02-01T06:54:25;18.80;;;3.47;;
24826;SDS011;12910;57.690;11.974;2023-02-01T06:56:50;13.30;;;3.00;;
24826;SDS011;12910;57.690;11.974;2023-02-01T06:59:16;22.10;;;2.73;;
24826;SDS011;12910;57.690;11.974;2023-02-01T07:01:41;14.47;;;2.43;;
24826;SDS011;12910;57.690;11.974;2023-02-01T07:04:08;17.03;;;3.27;;
24826;SDS011;12910;57.690;11.974;2023-02-01T07:06:35;9.57;;;2.37;;
24826;SDS011;12910;57.690;11.974;2023-02-01T07:09:00;16.57;;;3.07;;
24826;SDS011;12910;57.690;11.974;2023-02-01T07:11:26;24.30;;;3.23;;
24826;SDS011;12910;57.690;11.974;2023-02-01T07:13:53;15.90;;;2.30;;
24826;SDS011;12910;57.690;11.974;2023-02-01T07:16:19;10.30;;;3.40;;
24826;SDS011;12910;57.690;11.974;2023-02-01T07:18:45;21.30;;;2.57;;
24826;SDS011;12910;57.690;11.974;2023-02-01T07:21:11;24.43;;;2.97;;
24826;SDS011;12910;57.690;11.974;2023-02-01T07:23:37;20.17;;;3.90;;
24826;SDS011;12910;57.690;11.974;2023-02-01T07:26:04;26.90;;;3.10;;
24826;SDS011;12910;57.690;11.974;2023-02-01T07:28:31;18.17;;;3.43;;
24826;SDS011;12910;57.690;11.974;2023-02-01T07:31:03;4.30;;;1.87;;
24826;SDS011;12910;57.690;11.974;2023-02-01T07:33:29;15.40;;;2.00;;
24826;SDS011;12910;57.690;11.974;2023-02-01T07:35:55;13.10;;;2.27;;
24826;SDS011;12910;57.690;11.974;2023-02-01T07:38:20;10.63;;;2.33;;
24826;SDS011;12910;57.690;11.974;2023-02-01T07:40:48;8.70;;;2.40;;
24826;SDS011;12910;57.690;11.974;2023-02-01T07:43:14;10.70;;;2.43;;
24826;SDS011;12910;57.690;11.974;2023-02-01T07:45:39;10.43;;;1.73;;
24826;SDS011;12910;57.690;11.974;2023-02-01T07:48:04;9.67;;;1.50;;
24826;SDS011;12910;57.690;11.974;2023-02-01T07:50:30;19.13;;;1.80;;
24826;SDS011;12910;57.690;11.974;2023-02-01T07:52:58;4.13;;;2.17;;
24826;SDS011;12910;57.690;11.974;2023-02-01T07:55:25;9.73;;;2.67;;
24826;SDS011;12910;57.690;11.974;2023-02-01T07:57:50;11.00;;;2.63;;
24826;SDS011;12910;57.690;11.974;2023-02-01T08:00:15;14.77;;;2.13;;
24826;SDS011;12910;57.690;11.974;2023-02-01T08:03:00;7.57;;;2.17;;
24826;SDS011;12910;57.690;11.974;2023-02-01T08:05:26;9.83;;;2.17;;
24826;SDS011;12910;57.690;11.974;2023-02-01T08:07:52;11.00;;;1.83;;
24826;SDS011;12910;57.690;11.974;2023-02-01T08:10:18;9.57;;;2.67;;
24826;SDS011;12910;57.690;11.974;2023-02-01T08:12:43;17.87;;;1.77;;
24826;SDS011;12910;57.690;11.974;2023-02-01T08:15:13;15.10;;;1.93;;
24826;SDS011;12910;57.690;11.974;2023-02-01T08:17:40;12.73;;;2.50;;
24826;SDS011;12910;57.690;11.974;2023-02-01T08:20:11;17.00;;;2.37;;
24826;SDS011;12910;57.690;11.974;2023-02-01T08:22:38;18.07;;;3.47;;
24826;SDS011;12910;57.690;11.974;2023-02-01T08:25:03;14.63;;;2.93;;
24826;SDS011;12910;57.690;11.974;2023-02-01T08:27:29;8.73;;;1.90;;
24826;SDS011;12910;57.690;11.974;2023-02-01T08:29:57;15.83;;;1.93;;
24826;SDS011;12910;57.690;11.974;2023-02-01T08:32:24;19.53;;;2.00;;
24826;SDS011;12910;57.690;11.974;2023-02-01T08:34:49;7.43;;;3.20;;
24826;SDS011;12910;57.690;11.974;2023-02-01T08:37:14;19.77;;;2.77;;
24826;SDS011;12910;57.690;11.974;2023-02-01T08:39:40;11.90;;;2.03;;
24826;SDS011;12910;57.690;11.974;2023-02-01T08:42:08;6.30;;;1.80;;
24826;SDS011;12910;57.690;11.974;2023-02-01T08:44:52;10.83;;;2.77;;
24826;SDS011;12910;57.690;11.974;2023-02-01T08:47:18;13.97;;;3.27;;
24826;SDS011;12910;57.690;11.974;2023-02-01T08:49:43;17.00;;;3.20;;
24826;SDS011;12910;57.690;11.974;2023-02-01T08:52:08;19.53;;;2.53;;
24826;SDS011;12910;57.690;11.974;2023-02-01T08:54:34;15.40;;;3.23;;
24826;SDS011;12910;57.690;11.974;2023-02-01T08:56:59;22.37;;;3.13;;
24826;SDS011;12910;57.690;11.974;2023-02-01T08:59:25;14.93;;;2.87;;
24826;SDS011;12910;57.690;11.974;2023-02-01T09:01:50;21.23;;;2.93;;
24826;SDS011;12910;57.690;11.974;2023-02-01T09:04:16;11.57;;;2.17;;
24826;SDS011;12910;57.690;11.974;2023-02-01T09:06:41;19.17;;;3.37;;
24826;SDS011;12910;57.690;11.974;2023-02-01T09:09:06;23.83;;;4.43;;
24826;SDS011;12910;57.690;11.974;2023-02-01T09:11:32;16.30;;;2.67;;
24826;SDS011;12910;57.690;11.974;2023-02-01T09:13:57;15.63;;;3.57;;
24826;SDS011;12910;57.690;11.974;2023-02-01T09:16:23;14.73;;;3.30;;
24826;SDS011;12910;57.690;11.974;2023-02-01T09:18:48;14.10;;;2.57;;
24826;SDS011;12910;57.690;11.974;2023-02-01T09:21:13;13.93;;;2.57;;
24826;SDS011;12910;57.690;11.974;2023-02-01T09:23:39;23.73;;;3.43;;
24826;SDS011;12910;57.690;11.974;2023-02-01T09:26:04;22.00;;;3.17;;
24826;SDS011;12910;57.690;11.974;2023-02-01T09:28:30;23.43;;;2.47;;
24826;SDS011;12910;57.690;11.974;2023-02-01T09:30:57;19.93;;;2.87;;
24826;SDS011;12910;57.690;11.974;2023-02-01T09:33:23;20.23;;;4.17;;
24826;SDS011;12910;57.690;11.974;2023-02-01T09:36:01;11.93;;;3.63;;
24826;SDS011;12910;57.690;11.974;2023-02-01T09:38:28;28.33;;;3.13;;
24826;SDS011;12910;57.690;11.974;2023-02-01T09:40:54;16.20;;;4.07;;
24826;SDS011;12910;57.690;11.974;2023-02-01T09:48:54;34.07;;;3.07;;
24826;SDS011;12910;57.690;11.974;2023-02-01T09:51:36;24.03;;;3.87;;
24826;SDS011;12910;57.690;11.974;2023-02-01T09:54:09;23.50;;;4.37;;
24826;SDS011;12910;57.690;11.974;2023-02-01T09:56:49;26.27;;;3.77;;
24826;SDS011;12910;57.690;11.974;2023-02-01T09:59:30;23.73;;;3.93;;
24826;SDS011;12910;57.690;11.974;2023-02-01T10:02:03;25.67;;;4.97;;
24826;SDS011;12910;57.690;11.974;2023-02-01T10:04:35;23.07;;;3.37;;
24826;SDS011;12910;57.690;11.974;2023-02-01T10:09:42;27.27;;;3.80;;
24826;SDS011;12910;57.690;11.974;2023-02-01T10:22:44;35.77;;;3.33;;
24826;SDS011;12910;57.690;11.974;2023-02-01T10:25:26;13.73;;;3.20;;
24826;SDS011;12910;57.690;11.974;2023-02-01T10:27:53;29.03;;;5.17;;
24826;SDS011;12910;57.690;11.974;2023-02-01T10:30:24;23.37;;;3.20;;
24826;SDS011;12910;57.690;11.974;2023-02-01T10:33:15;25.33;;;3.87;;
24826;SDS011;12910;57.690;11.974;2023-02-01T10:35:42;29.87;;;3.27;;
24826;SDS011;12910;57.690;11.974;2023-02-01T10:38:20;18.10;;;3.03;;
24826;SDS011;12910;57.690;11.974;2023-02-01T10:40:51;12.60;;;2.83;;
24826;SDS011;12910;57.690;11.974;2023-02-01T10:43:20;24.43;;;3.57;;
24826;SDS011;12910;57.690;11.974;2023-02-01T10:45:46;29.80;;;3.30;;
24826;SDS011;12910;57.690;11.974;2023-02-01T10:48:11;30.23;;;3.63;;
24826;SDS011;12910;57.690;11.974;2023-02-01T10:50:38;19.03;;;3.17;;
24826;SDS011;12910;57.690;11.974;2023-02-01T10:53:20;19.83;;;3.53;;
24826;SDS011;12910;57.690;11.974;2023-02-01T10:55:51;16.83;;;3.03;;
24826;SDS011;12910;57.690;11.974;2023-02-01T11:01:07;25.47;;;4.30;;
24826;SDS011;12910;57.690;11.974;2023-02-01T11:03:39;21.67;;;3.27;;
24826;SDS011;12910;57.690;11.974;2023-02-01T11:06:11;26.13;;;3.87;;
24826;SDS011;12910;57.690;11.974;2023-02-01T11:08:48;26.77;;;4.27;;
24826;SDS011;12910;57.690;11.974;2023-02-01T11:11:16;32.47;;;3.50;;
24826;SDS011;12910;57.690;11.974;2023-02-01T11:13:42;25.67;;;4.37;;
24826;SDS011;12910;57.690;11.974;2023-02-01T11:16:11;19.63;;;3.87;;
24826;SDS011;12910;57.690;11.974;2023-02-01T11:18:39;22.77;;;3.80;;
24826;SDS011;12910;57.690;11.974;2023-02-01T11:21:05;17.70;;;3.70;;
24826;SDS011;12910;57.690;11.974;2023-02-01T11:23:33;37.87;;;4.80;;
24826;SDS011;12910;57.690;11.974;2023-02-01T11:26:14;36.07;;;5.43;;
24826;SDS011;12910;57.690;11.974;2023-02-01T11:29:04;26.23;;;5.00;;
24826;SDS011;12910;57.690;11.974;2023-02-01T11:31:35;30.17;;;6.47;;
24826;SDS011;12910;57.690;11.974;2023-02-01T11:34:06;33.83;;;4.23;;
24826;SDS011;12910;57.690;11.974;2023-02-01T11:36:37;39.67;;;5.33;;
24826;SDS011;12910;57.690;11.974;2023-02-01T11:41:40;29.20;;;4.70;;
24826;SDS011;12910;57.690;11.974;2023-02-01T11:44:29;17.50;;;3.90;;
24826;SDS011;12910;57.690;11.974;2023-02-01T11:46:55;26.73;;;4.00;;
24826;SDS011;12910;57.690;11.974;2023-02-01T11:49:22;17.60;;;3.57;;
24826;SDS011;12910;57.690;11.974;2023-02-01T12:03:18;19.90;;;3.43;;
24826;SDS011;12910;57.690;11.974;2023-02-01T12:05:49;20.03;;;2.83;;
24826;SDS011;12910;57.690;11.974;2023-02-01T12:16:37;37.70;;;3.90;;
24826;SDS011;12910;57.690;11.974;2023-02-01T12:19:32;8.20;;;3.27;;
24826;SDS011;12910;57.690;11.974;2023-02-01T12:25:04;21.47;;;3.43;;
24826;SDS011;12910;57.690;11.974;2023-02-01T12:27:52;22.87;;;5.07;;
24826;SDS011;12910;57.690;11.974;2023-02-01T12:38:57;15.20;;;2.90;;
24826;SDS011;12910;57.690;11.974;2023-02-01T12:47:13;22.90;;;3.13;;
24826;SDS011;12910;57.690;11.974;2023-02-01T12:49:48;29.00;;;3.30;;
24826;SDS011;12910;57.690;11.974;2023-02-01T12:55:25;12.93;;;3.53;;
24826;SDS011;12910;57.690;11.974;2023-02-01T13:00:45;12.97;;;3.37;;
24826;SDS011;12910;57.690;11.974;2023-02-01T13:03:42;39.93;;;4.30;;
24826;SDS011;12910;57.690;11.974;2023-02-01T13:06:17;25.03;;;3.50;;
24826;SDS011;12910;57.690;11.974;2023-02-01T13:11:38;35.43;;;3.37;;
24826;SDS011;12910;57.690;11.974;2023-02-01T13:14:11;29.97;;;3.87;;
24826;SDS011;12910;57.690;11.974;2023-02-01T13:17:00;47.60;;;5.20;;
24826;SDS011;12910;57.690;11.974;2023-02-01T13:19:30;30.27;;;3.33;;
24826;SDS011;12910;57.690;11.974;2023-02-01T13:22:00;24.13;;;3.63;;
24826;SDS011;12910;57.690;11.974;2023-02-01T13:27:05;34.57;;;5.03;;
24826;SDS011;12910;57.690;11.974;2023-02-01T13:29:30;26.50;;;4.20;;
24826;SDS011;12910;57.690;11.974;2023-02-01T13:34:40;28.77;;;4.57;;
24826;SDS011;12910;57.690;11.974;2023-02-01T13:43:14;20.67;;;3.93;;
24826;SDS011;12910;57.690;11.974;2023-02-01T13:45:48;19.70;;;4.87;;
24826;SDS011;12910;57.690;11.974;2023-02-01T13:48:31;23.87;;;3.63;;
24826;SDS011;12910;57.690;11.974;2023-02-01T13:51:04;24.97;;;3.60;;
24826;SDS011;12910;57.690;11.974;2023-02-01T13:53:31;22.33;;;3.43;;
24826;SDS011;12910;57.690;11.974;2023-02-01T13:56:02;30.57;;;4.50;;
24826;SDS011;12910;57.690;11.974;2023-02-01T13:58:49;26.73;;;4.67;;
24826;SDS011;12910;57.690;11.974;2023-02-01T14:03:48;27.30;;;4.63;;
24826;SDS011;12910;57.690;11.974;2023-02-01T14:06:17;19.10;;;4.63;;
24826;SDS011;12910;57.690;11.974;2023-02-01T14:08:43;31.97;;;4.33;;
24826;SDS011;12910;57.690;11.974;2023-02-01T14:11:32;30.80;;;4.37;;
24826;SDS011;12910;57.690;11.974;2023-02-01T14:14:06;40.23;;;4.47;;
24826;SDS011;12910;57.690;11.974;2023-02-01T14:19:24;25.47;;;5.83;;
24826;SDS011;12910;57.690;11.974;2023-02-01T14:24:55;37.87;;;3.77;;
24826;SDS011;12910;57.690;11.974;2023-02-01T14:27:26;30.87;;;5.23;;
24826;SDS011;12910;57.690;11.974;2023-02-01T14:29:59;29.37;;;3.80;;
24826;SDS011;12910;57.690;11.974;2023-02-01T14:35:06;39.53;;;5.37;;
24826;SDS011;12910;57.690;11.974;2023-02-01T14:37:42;32.80;;;4.47;;
24826;SDS011;12910;57.690;11.974;2023-02-01T14:42:47;19.53;;;4.23;;
24826;SDS011;12910;57.690;11.974;2023-02-01T14:58:23;5.57;;;1.60;;
24826;SDS011;12910;57.690;11.974;2023-02-01T15:00:54;6.53;;;1.43;;
24826;SDS011;12910;57.690;11.974;2023-02-01T15:08:49;4.33;;;0.80;;
24826;SDS011;12910;57.690;11.974;2023-02-01T15:11:19;2.93;;;1.17;;
24826;SDS011;12910;57.690;11.974;2023-02-01T15:13:52;9.43;;;1.73;;
24826;SDS011;12910;57.690;11.974;2023-02-01T15:16:19;5.27;;;1.63;;
24826;SDS011;12910;57.690;11.974;2023-02-01T15:18:47;17.23;;;1.77;;
24826;SDS011;12910;57.690;11.974;2023-02-01T15:21:17;5.97;;;1.10;;
24826;SDS011;12910;57.690;11.974;2023-02-01T15:23:47;2.67;;;0.77;;
24826;SDS011;12910;57.690;11.974;2023-02-01T15:26:27;4.23;;;0.53;;
24826;SDS011;12910;57.690;11.974;2023-02-01T15:28:54;3.20;;;0.50;;
24826;SDS011;12910;57.690;11.974;2023-02-01T15:31:41;9.97;;;0.67;;
24826;SDS011;12910;57.690;11.974;2023-02-01T15:34:16;4.00;;;0.33;;
24826;SDS011;12910;57.690;11.974;2023-02-01T15:36:42;1.60;;;0.73;;
24826;SDS011;12910;57.690;11.974;2023-02-01T15:44:40;3.20;;;1.03;;
24826;SDS011;12910;57.690;11.974;2023-02-01T15:47:18;3.70;;;0.60;;
24826;SDS011;12910;57.690;11.974;2023-02-01T15:49:51;3.03;;;0.50;;
24826;SDS011;12910;57.690;11.974;2023-02-01T15:52:24;7.27;;;0.80;;
24826;SDS011;12910;57.690;11.974;2023-02-01T15:54:54;2.73;;;0.47;;
24826;SDS011;12910;57.690;11.974;2023-02-01T15:57:22;6.90;;;1.17;;
24826;SDS011;12910;57.690;11.974;2023-02-01T15:59:55;1.70;;;0.87;;
24826;SDS011;12910;57.690;11.974;2023-02-01T16:02:26;2.77;;;0.37;;
24826;SDS011;12910;57.690;11.974;2023-02-01T16:04:57;5.10;;;0.50;;
24826;SDS011;12910;57.690;11.974;2023-02-01T16:07:27;0.87;;;0.50;;
24826;SDS011;12910;57.690;11.974;2023-02-01T16:09:55;6.40;;;0.50;;
24826;SDS011;12910;57.690;11.974;2023-02-01T16:12:29;2.03;;;0.80;;
24826;SDS011;12910;57.690;11.974;2023-02-01T16:15:03;1.70;;;0.50;;
24826;SDS011;12910;57.690;11.974;2023-02-01T16:17:29;4.77;;;1.27;;
24826;SDS011;12910;57.690;11.974;2023-02-01T16:19:54;3.20;;;0.57;;
24826;SDS011;12910;57.690;11.974;2023-02-01T16:22:20;1.07;;;0.60;;
24826;SDS011;12910;57.690;11.974;2023-02-01T16:24:45;1.87;;;0.40;;
24826;SDS011;12910;57.690;11.974;2023-02-01T16:27:11;5.47;;;0.60;;
24826;SDS011;12910;57.690;11.974;2023-02-01T16:29:36;1.53;;;0.50;;
24826;SDS011;12910;57.690;11.974;2023-02-01T16:32:01;3.30;;;1.00;;
24826;SDS011;12910;57.690;11.974;2023-02-01T16:34:28;6.23;;;0.60;;
24826;SDS011;12910;57.690;11.974;2023-02-01T16:36:53;3.93;;;1.03;;
24826;SDS011;12910;57.690;11.974;2023-02-01T16:39:22;3.13;;;0.40;;
24826;SDS011;12910;57.690;11.974;2023-02-01T16:41:48;1.17;;;0.50;;
24826;SDS011;12910;57.690;11.974;2023-02-01T16:44:13;2.17;;;1.70;;
24826;SDS011;12910;57.690;11.974;2023-02-01T16:46:40;2.83;;;0.70;;
24826;SDS011;12910;57.690;11.974;2023-02-01T16:49:16;4.40;;;0.50;;
24826;SDS011;12910;57.690;11.974;2023-02-01T16:51:43;1.57;;;0.50;;
24826;SDS011;12910;57.690;11.974;2023-02-01T16:54:09;2.03;;;0.70;;
24826;SDS011;12910;57.690;11.974;2023-02-01T16:56:41;3.10;;;0.73;;
24826;SDS011;12910;57.690;11.974;2023-02-01T16:59:08;3.13;;;0.50;;
24826;SDS011;12910;57.690;11.974;2023-02-01T17:01:34;3.93;;;0.73;;
24826;SDS011;12910;57.690;11.974;2023-02-01T17:04:01;3.97;;;0.63;;
24826;SDS011;12910;57.690;11.974;2023-02-01T17:06:27;3.43;;;0.67;;
24826;SDS011;12910;57.690;11.974;2023-02-01T17:08:54;3.13;;;0.60;;